Time;durP1;ratioP1;P1;durP2;ratioP2;P2;SDS_P1;SDS_P2;PMS_P1;PMS_P2;Temp;Humidity;BMP_temperature;BMP_pressure;BME280_temperature;BME280_humidity;BME280_pressure;Samples;Min_cycle;Max_cycle;Signal;HPM_P1;HPM_P2
2021/06/01 00:02:16;;;;;;;8.90;4.20;;;16.20;99.90;;;;;;5033741;28;20042;-82
2021/06/01 00:04:41;;;;;;;8.40;4.20;;;16.20;99.90;;;;;;5034136;28;20414;-80
2021/06/01 00:07:07;;;;;;;8.55;4.03;;;16.10;99.90;;;;;;5033732;28;20025;-77
2021/06/01 00:09:33;;;;;;;6.65;3.95;;;16.10;99.90;;;;;;5034017;28;20054;-81
2021/06/01 00:11:59;;;;;;;6.60;4.53;;;16.10;99.90;;;;;;5033985;28;20025;-77
2021/06/01 00:14:25;;;;;;;11.77;4.38;;;16.10;99.90;;;;;;5034014;28;20485;-78
2021/06/01 00:16:51;;;;;;;11.27;4.18;;;16.10;99.90;;;;;;5033625;28;20025;-78
2021/06/01 00:19:17;;;;;;;12.35;4.45;;;16.10;99.90;;;;;;5033725;28;20021;-77
2021/06/01 00:21:43;;;;;;;8.25;4.28;;;16.10;99.90;;;;;;5033471;28;20076;-77
2021/06/01 00:24:09;;;;;;;8.88;4.38;;;16.00;99.90;;;;;;5010892;28;20030;-82
2021/06/01 00:26:37;;;;;;;7.90;3.85;;;16.00;99.90;;;;;;5034306;28;20052;-78
2021/06/01 00:29:04;;;;;;;7.93;4.43;;;15.90;99.90;;;;;;5034366;28;20049;-79
2021/06/01 00:31:30;;;;;;;11.15;4.70;;;15.90;99.90;;;;;;5034396;28;20132;-79
2021/06/01 00:33:56;;;;;;;7.07;4.28;;;15.90;99.90;;;;;;5032772;28;20119;-81
2021/06/01 00:36:22;;;;;;;6.72;4.00;;;15.80;99.90;;;;;;5033909;28;20079;-79
2021/06/01 00:38:47;;;;;;;5.60;4.45;;;15.80;99.90;;;;;;5033276;28;20121;-79
2021/06/01 00:41:13;;;;;;;7.75;4.32;;;15.80;99.90;;;;;;5014961;28;20466;-80
2021/06/01 00:43:39;;;;;;;9.25;4.60;;;15.80;99.90;;;;;;5033243;28;20474;-78
2021/06/01 00:46:05;;;;;;;10.27;4.85;;;15.80;99.90;;;;;;5032903;28;20025;-77
2021/06/01 00:48:30;;;;;;;10.75;5.05;;;15.70;99.90;;;;;;5015286;28;20049;-79
2021/06/01 00:50:56;;;;;;;8.77;4.57;;;15.70;99.90;;;;;;5032708;28;20018;-81
2021/06/01 00:53:22;;;;;;;5.13;4.63;;;15.60;99.90;;;;;;5032527;28;20108;-77
2021/06/01 00:55:48;;;;;;;7.60;4.25;;;15.60;99.90;;;;;;5032241;28;20021;-77
2021/06/01 00:58:14;;;;;;;5.45;3.75;;;15.60;99.90;;;;;;5012426;28;20036;-78
2021/06/01 01:03:24;;;;;;;5.80;4.05;;;15.70;99.90;;;;;;5031290;28;20083;-80
2021/06/01 01:05:51;;;;;;;11.20;4.40;;;15.60;99.90;;;;;;5031728;28;20652;-76
2021/06/01 01:11:24;;;;;;;6.18;4.10;;;15.70;99.90;;;;;;5031928;28;20071;-77
2021/06/01 01:13:54;;;;;;;5.05;3.50;;;15.70;99.90;;;;;;5021364;28;20529;-77
2021/06/01 01:16:23;;;;;;;12.00;4.78;;;15.70;99.90;;;;;;5032422;28;20052;-80
2021/06/01 01:18:55;;;;;;;8.95;3.95;;;15.80;99.90;;;;;;5032249;28;20113;-78
2021/06/01 01:21:29;;;;;;;7.03;4.00;;;15.80;99.90;;;;;;5032223;28;20052;-78
2021/06/01 01:24:18;;;;;;;5.45;3.67;;;15.80;99.90;;;;;;5032489;28;20025;-79
2021/06/01 01:27:40;;;;;;;8.88;4.10;;;15.90;99.90;;;;;;5014683;28;20076;-79
2021/06/01 01:30:07;;;;;;;8.27;3.83;;;15.90;99.90;;;;;;4978221;28;20034;-82
2021/06/01 01:33:01;;;;;;;8.68;4.40;;;15.90;99.90;;;;;;5032447;28;20478;-79
2021/06/01 01:35:29;;;;;;;4.20;3.45;;;15.90;99.90;;;;;;5031497;28;20029;-77
2021/06/01 01:37:59;;;;;;;5.25;3.53;;;15.90;99.90;;;;;;5031804;28;20017;-80
2021/06/01 01:40:26;;;;;;;5.20;3.40;;;16.00;99.90;;;;;;5030937;28;20027;-80
2021/06/01 01:42:59;;;;;;;4.85;3.60;;;16.00;99.90;;;;;;5031612;28;20037;-81
2021/06/01 01:45:37;;;;;;;7.13;4.07;;;16.00;99.90;;;;;;5031365;28;20374;-78
2021/06/01 01:50:58;;;;;;;5.18;3.67;;;16.00;99.90;;;;;;5032120;28;20024;-80
2021/06/01 01:53:25;;;;;;;5.95;3.83;;;16.00;99.90;;;;;;5031816;28;20029;-80
2021/06/01 01:55:52;;;;;;;5.57;3.97;;;16.00;99.90;;;;;;5031891;28;20083;-77
2021/06/01 01:58:21;;;;;;;6.97;3.55;;;16.00;99.90;;;;;;5031714;28;20664;-78
2021/06/01 02:00:48;;;;;;;11.18;3.58;;;16.00;99.90;;;;;;5031516;28;20420;-77
2021/06/01 02:03:14;;;;;;;11.00;4.05;;;15.90;99.90;;;;;;5032065;28;20110;-82
2021/06/01 02:05:41;;;;;;;7.90;3.35;;;15.90;99.90;;;;;;5032033;28;20094;-80
2021/06/01 02:08:11;;;;;;;6.03;3.72;;;15.90;99.90;;;;;;5031898;28;20022;-77
2021/06/01 02:10:37;;;;;;;7.78;3.40;;;15.90;99.90;;;;;;5032080;28;20109;-79
2021/06/01 02:13:04;;;;;;;4.43;3.35;;;15.90;99.90;;;;;;5031808;28;20105;-76
2021/06/01 02:15:30;;;;;;;5.05;3.40;;;15.90;99.90;;;;;;5031863;28;20029;-81
2021/06/01 02:17:55;;;;;;;7.63;3.70;;;16.00;99.90;;;;;;5031792;28;20025;-80
2021/06/01 02:20:21;;;;;;;6.22;2.72;;;15.90;99.90;;;;;;5031504;28;20060;-76
2021/06/01 02:23:53;;;;;;;5.82;3.47;;;15.90;99.90;;;;;;5031353;28;20524;-77
2021/06/01 02:26:03;;;;;;;7.10;3.67;;;15.90;99.90;;;;;;5002994;28;20057;-76
2021/06/01 02:29:00;;;;;;;4.60;3.38;;;15.90;99.90;;;;;;5031818;28;20045;-78
2021/06/01 02:31:39;;;;;;;7.30;3.53;;;15.90;99.90;;;;;;5030775;28;20038;-82
2021/06/01 02:34:07;;;;;;;9.68;3.78;;;15.90;99.90;;;;;;5031568;28;20017;-81
2021/06/01 02:36:34;;;;;;;5.25;3.53;;;15.80;99.90;;;;;;5031536;28;20104;-78
2021/06/01 02:39:00;;;;;;;8.65;3.33;;;15.90;99.90;;;;;;5014236;28;20025;-77
2021/06/01 02:41:26;;;;;;;8.13;4.43;;;15.90;99.90;;;;;;5013842;28;20386;-77
2021/06/01 02:43:52;;;;;;;7.38;3.17;;;16.00;99.90;;;;;;5031435;28;20026;-78
2021/06/01 02:46:19;;;;;;;8.23;3.70;;;16.00;99.90;;;;;;5031684;28;20021;-81
2021/06/01 02:48:46;;;;;;;4.30;3.40;;;16.00;99.90;;;;;;5034297;28;20044;-81
2021/06/01 02:51:15;;;;;;;12.05;3.15;;;16.10;99.90;;;;;;5035425;28;20033;-78
2021/06/01 02:54:00;;;;;;;4.63;3.40;;;16.10;99.90;;;;;;5035321;28;20029;-79
2021/06/01 02:56:27;;;;;;;4.07;3.20;;;16.20;99.90;;;;;;5035499;28;20067;-78
2021/06/01 02:58:53;;;;;;;4.82;3.45;;;16.30;99.90;;;;;;5035210;28;20032;-77
2021/06/01 03:01:20;;;;;;;5.18;3.50;;;16.30;99.90;;;;;;5035189;28;20037;-80
2021/06/01 03:03:47;;;;;;;7.90;3.33;;;16.30;99.90;;;;;;5035474;28;20033;-77
2021/06/01 03:06:16;;;;;;;4.95;3.20;;;16.30;99.90;;;;;;5034828;28;20025;-81
2021/06/01 03:08:41;;;;;;;6.70;3.15;;;16.30;99.90;;;;;;5035215;28;20502;-78
2021/06/01 03:11:07;;;;;;;6.72;3.70;;;16.30;99.90;;;;;;5034810;28;20060;-78
2021/06/01 03:13:33;;;;;;;4.88;3.35;;;16.30;99.90;;;;;;5034515;28;20065;-82
2021/06/01 03:15:59;;;;;;;6.53;3.80;;;16.20;99.90;;;;;;5034469;28;20029;-81
2021/06/01 03:18:25;;;;;;;4.10;3.22;;;16.20;99.90;;;;;;5034855;28;20109;-82
2021/06/01 03:20:51;;;;;;;5.80;3.65;;;16.20;99.90;;;;;;5034651;28;20075;-77
2021/06/01 03:23:18;;;;;;;4.00;3.22;;;16.20;99.90;;;;;;5034811;28;20021;-79
2021/06/01 03:25:44;;;;;;;3.85;3.00;;;16.30;99.90;;;;;;5035149;28;20063;-82
2021/06/01 03:28:10;;;;;;;4.80;3.25;;;16.30;99.90;;;;;;5034059;28;20068;-78
2021/06/01 03:30:37;;;;;;;8.43;3.60;;;16.30;99.90;;;;;;5034139;28;20025;-80
2021/06/01 03:33:03;;;;;;;8.10;3.10;;;16.30;99.90;;;;;;5034347;28;20406;-82
2021/06/01 03:35:29;;;;;;;4.60;3.15;;;16.30;99.90;;;;;;5034267;28;20021;-83
2021/06/01 03:37:55;;;;;;;11.43;3.53;;;16.30;99.90;;;;;;5016876;28;20036;-77
2021/06/01 03:40:23;;;;;;;6.43;3.55;;;16.30;99.90;;;;;;5034548;28;20079;-82
2021/06/01 03:42:50;;;;;;;4.72;3.05;;;16.30;99.90;;;;;;5034078;28;20386;-80
2021/06/01 03:45:17;;;;;;;4.05;3.28;;;16.30;99.90;;;;;;5033962;28;20017;-77
2021/06/01 03:47:43;;;;;;;5.63;3.40;;;16.40;99.90;;;;;;5034219;28;20541;-80
2021/06/01 03:50:09;;;;;;;8.13;3.63;;;16.40;99.90;;;;;;5033950;28;20045;-77
2021/06/01 03:52:35;;;;;;;7.97;3.42;;;16.40;99.90;;;;;;5033893;28;20022;-79
2021/06/01 03:55:01;;;;;;;8.30;3.28;;;16.50;99.90;;;;;;5024953;28;20033;-78
2021/06/01 03:57:27;;;;;;;6.13;3.33;;;16.50;99.90;;;;;;5027339;28;20032;-82
2021/06/01 03:59:52;;;;;;;6.68;3.22;;;16.60;99.90;;;;;;5019429;28;20022;-82
2021/06/01 04:02:18;;;;;;;4.03;3.30;;;16.60;99.90;;;;;;5031129;28;20036;-80
2021/06/01 04:04:44;;;;;;;4.28;3.20;;;16.60;99.90;;;;;;5019095;28;20022;-77
2021/06/01 04:07:10;;;;;;;4.72;2.95;;;16.60;99.90;;;;;;5023816;28;20049;-77
2021/06/01 04:09:36;;;;;;;6.90;3.33;;;16.60;99.90;;;;;;5022364;28;20469;-80
2021/06/01 04:12:03;;;;;;;6.95;3.40;;;16.60;99.90;;;;;;5020953;28;20037;-78
2021/06/01 04:14:29;;;;;;;4.47;3.08;;;16.60;99.90;;;;;;5026960;28;20053;-81
2021/06/01 04:16:56;;;;;;;4.45;2.97;;;16.60;99.90;;;;;;5019267;28;20057;-78
2021/06/01 04:19:22;;;;;;;6.97;4.10;;;16.60;99.90;;;;;;5029314;28;20021;-81
2021/06/01 04:21:47;;;;;;;7.05;3.50;;;16.70;99.90;;;;;;5025659;28;20039;-76
2021/06/01 04:24:13;;;;;;;4.97;2.92;;;16.80;99.90;;;;;;5039564;28;20100;-78
2021/06/01 04:26:39;;;;;;;8.13;3.55;;;16.80;99.90;;;;;;5046723;28;20029;-80
2021/06/01 04:29:06;;;;;;;5.38;3.15;;;16.80;99.90;;;;;;5034070;28;20080;-78
2021/06/01 04:31:32;;;;;;;7.20;3.80;;;16.90;99.90;;;;;;5025968;28;20018;-80
2021/06/01 04:33:57;;;;;;;4.72;3.17;;;17.00;99.90;;;;;;5027154;28;20029;-81
2021/06/01 04:36:25;;;;;;;5.03;3.38;;;17.20;99.90;;;;;;5030318;28;20059;-82
2021/06/01 04:38:55;;;;;;;5.18;3.38;;;17.30;99.90;;;;;;5025745;28;20354;-77
2021/06/01 04:41:21;;;;;;;5.47;3.15;;;17.40;99.90;;;;;;5032058;28;20033;-77
2021/06/01 04:43:47;;;;;;;6.00;3.20;;;17.60;99.90;;;;;;5033106;28;20034;-77
2021/06/01 04:46:12;;;;;;;9.10;3.72;;;17.80;99.90;;;;;;5032679;28;20465;-81
2021/06/01 04:48:38;;;;;;;4.82;3.42;;;19.40;98.80;;;;;;5032941;28;20048;-83
2021/06/01 04:51:04;;;;;;;6.25;3.03;;;22.30;95.80;;;;;;5033002;28;20175;-78
2021/06/01 04:53:30;;;;;;;7.65;3.38;;;24.10;92.90;;;;;;5037253;28;20029;-81
2021/06/01 04:55:56;;;;;;;6.35;3.13;;;25.80;91.10;;;;;;5033670;28;20022;-81
2021/06/01 04:58:21;;;;;;;6.45;3.33;;;27.10;88.00;;;;;;5042893;28;20057;-79
2021/06/01 05:00:47;;;;;;;7.90;2.88;;;27.70;85.90;;;;;;5046548;28;20025;-81
2021/06/01 05:03:13;;;;;;;4.35;3.00;;;29.30;82.20;;;;;;5047935;28;20100;-79
2021/06/01 05:05:38;;;;;;;3.50;2.38;;;30.40;78.90;;;;;;5031817;28;20429;-85
2021/06/01 05:08:04;;;;;;;4.82;2.95;;;31.20;76.90;;;;;;5031615;28;20032;-80
2021/06/01 05:10:30;;;;;;;5.13;2.25;;;29.90;76.90;;;;;;5032717;28;20057;-80
2021/06/01 05:12:56;;;;;;;8.45;3.00;;;28.20;78.40;;;;;;5029233;28;20033;-81
2021/06/01 05:15:22;;;;;;;3.40;2.65;;;26.70;80.20;;;;;;5031062;28;20057;-83
2021/06/01 05:17:47;;;;;;;6.97;2.92;;;25.10;83.10;;;;;;5032567;28;20049;-81
2021/06/01 05:20:13;;;;;;;9.30;3.45;;;24.30;85.50;;;;;;5029906;28;20056;-81
2021/06/01 05:22:39;;;;;;;12.40;3.55;;;23.60;87.30;;;;;;5031901;28;20049;-81
2021/06/01 05:25:06;;;;;;;7.47;3.42;;;23.20;88.80;;;;;;5023628;28;20022;-82
2021/06/01 05:27:31;;;;;;;4.95;2.78;;;23.20;89.20;;;;;;5031855;28;20022;-77
2021/06/01 05:30:01;;;;;;;8.38;3.80;;;23.60;89.20;;;;;;5031124;28;20109;-79
2021/06/01 05:35:01;;;;;;;5.55;2.88;;;23.70;88.30;;;;;;5032263;28;20029;-79
2021/06/01 05:37:28;;;;;;;5.18;3.22;;;23.10;89.50;;;;;;5031729;28;20044;-78
2021/06/01 05:39:54;;;;;;;7.53;3.50;;;22.50;90.20;;;;;;5032125;28;20440;-83
2021/06/01 05:42:21;;;;;;;5.00;3.13;;;23.00;90.30;;;;;;5032090;28;20037;-78
2021/06/01 05:44:47;;;;;;;8.55;3.10;;;24.30;89.00;;;;;;5033132;28;20030;-77
2021/06/01 05:47:16;;;;;;;5.90;2.70;;;26.30;85.50;;;;;;5033252;28;20032;-81
2021/06/01 05:49:42;;;;;;;5.40;3.15;;;27.50;82.20;;;;;;5032561;28;20041;-79
2021/06/01 05:52:08;;;;;;;5.88;2.75;;;27.80;81.10;;;;;;5032816;28;20028;-84
2021/06/01 05:54:34;;;;;;;9.73;3.20;;;26.80;81.30;;;;;;5032702;28;20032;-77
2021/06/01 05:57:00;;;;;;;7.53;3.63;;;25.60;83.10;;;;;;5031705;28;20022;-76
2021/06/01 05:59:25;;;;;;;3.38;2.97;;;24.60;85.40;;;;;;5031268;28;20030;-78
2021/06/01 06:01:51;;;;;;;8.93;3.28;;;23.60;87.60;;;;;;5031736;28;20033;-76
2021/06/01 06:04:17;;;;;;;5.55;3.03;;;23.20;88.50;;;;;;5014259;28;20417;-77
2021/06/01 06:06:43;;;;;;;6.43;3.53;;;24.40;87.70;;;;;;5032150;28;20021;-78
2021/06/01 06:09:08;;;;;;;5.20;2.88;;;26.50;84.40;;;;;;5031441;28;20040;-80
2021/06/01 06:11:34;;;;;;;3.63;2.40;;;28.90;80.40;;;;;;5031877;28;20585;-78
2021/06/01 06:14:00;;;;;;;4.03;2.50;;;31.40;76.50;;;;;;5032614;28;20371;-81
2021/06/01 06:16:28;;;;;;;3.20;2.40;;;33.10;72.80;;;;;;5032083;28;20026;-76
2021/06/01 06:18:59;;;;;;;5.63;2.53;;;33.00;71.70;;;;;;5031841;28;20083;-78
2021/06/01 06:21:25;;;;;;;9.75;2.53;;;34.40;70.40;;;;;;5031698;28;20470;-77
2021/06/01 06:23:51;;;;;;;5.32;2.47;;;35.50;67.30;;;;;;5035099;28;20091;-77
2021/06/01 06:26:17;;;;;;;13.20;2.38;;;34.70;65.50;;;;;;5035786;28;20477;-78
2021/06/01 06:28:43;;;;;;;11.45;2.10;;;33.80;66.70;;;;;;5036202;28;20032;-79
2021/06/01 06:31:09;;;;;;;6.00;2.58;;;32.00;68.80;;;;;;5035980;28;20029;-78
2021/06/01 06:33:35;;;;;;;6.35;1.88;;;31.60;69.90;;;;;;5035770;28;20381;-79
2021/06/01 06:36:01;;;;;;;7.82;2.05;;;32.50;68.50;;;;;;5035625;28;20462;-77
2021/06/01 06:38:27;;;;;;;6.10;1.95;;;33.90;66.20;;;;;;5034640;28;20032;-78
2021/06/01 06:43:38;;;;;;;4.75;1.83;;;36.20;61.40;;;;;;5034708;28;20075;-81
2021/06/01 06:46:11;;;;;;;7.70;1.90;;;36.30;60.50;;;;;;5035520;28;20029;-78
2021/06/01 06:48:37;;;;;;;7.50;1.73;;;35.70;58.70;;;;;;5034711;28;20049;-84
2021/06/01 06:51:12;;;;;;;8.90;2.42;;;34.90;58.60;;;;;;5034700;28;20068;-77
2021/06/01 06:53:50;;;;;;;9.13;2.00;;;34.00;59.40;;;;;;5035556;28;20013;-80
2021/06/01 06:56:16;;;;;;;3.67;1.80;;;33.00;60.40;;;;;;5035819;28;20018;-79
2021/06/01 06:58:42;;;;;;;9.25;2.53;;;31.90;62.00;;;;;;5035644;28;20389;-79
2021/06/01 07:01:09;;;;;;;7.75;2.35;;;30.80;63.80;;;;;;5034751;28;20021;-82
2021/06/01 07:03:35;;;;;;;7.55;2.78;;;29.90;66.50;;;;;;5034808;28;20390;-83
2021/06/01 07:06:01;;;;;;;6.00;2.03;;;29.40;67.90;;;;;;5034688;28;20024;-82
2021/06/01 07:08:26;;;;;;;5.40;2.80;;;29.10;68.50;;;;;;5035037;28;20025;-77
2021/06/01 07:10:52;;;;;;;3.53;2.25;;;28.30;69.20;;;;;;5034454;28;20017;-81
2021/06/01 07:13:20;;;;;;;5.38;2.00;;;28.10;70.40;;;;;;5034661;28;20068;-79
2021/06/01 07:15:51;;;;;;;6.22;2.13;;;27.90;71.10;;;;;;5034852;28;20029;-80
2021/06/01 07:18:16;;;;;;;4.28;2.30;;;27.70;71.20;;;;;;5034790;28;20108;-78
2021/06/01 07:20:42;;;;;;;8.60;2.33;;;27.70;72.00;;;;;;5034536;28;20100;-85
2021/06/01 07:23:08;;;;;;;4.90;2.17;;;27.70;72.10;;;;;;5034164;28;20030;-78
2021/06/01 07:25:33;;;;;;;8.68;2.25;;;27.40;72.70;;;;;;5033414;28;20485;-81
2021/06/01 07:28:01;;;;;;;11.75;2.45;;;27.10;72.70;;;;;;5033385;28;20104;-83
2021/06/01 07:30:26;;;;;;;4.18;2.45;;;26.90;73.30;;;;;;5034549;28;20045;-79
2021/06/01 07:32:52;;;;;;;13.90;2.70;;;26.80;73.70;;;;;;5034498;28;20430;-77
2021/06/01 07:35:19;;;;;;;6.88;2.65;;;26.80;74.60;;;;;;5023197;28;20402;-78
2021/06/01 07:37:45;;;;;;;8.00;2.47;;;26.70;75.20;;;;;;5027913;28;20474;-81
2021/06/01 07:40:11;;;;;;;7.57;3.33;;;26.60;75.00;;;;;;5022515;28;20030;-83
2021/06/01 07:42:37;;;;;;;14.57;2.60;;;26.50;74.70;;;;;;5026213;28;20112;-83
2021/06/01 07:45:04;;;;;;;2.55;2.15;;;26.70;74.50;;;;;;5006185;28;20025;-82
2021/06/01 07:47:30;;;;;;;4.38;2.40;;;26.80;74.80;;;;;;5034022;28;20105;-80
2021/06/01 07:49:56;;;;;;;9.50;2.40;;;27.10;74.60;;;;;;5034576;28;20125;-79
2021/06/01 07:52:21;;;;;;;3.63;1.95;;;27.20;74.80;;;;;;5016586;28;20026;-81
2021/06/01 07:54:47;;;;;;;8.63;2.53;;;27.20;75.70;;;;;;5034444;28;20466;-82
2021/06/01 07:57:13;;;;;;;4.55;2.13;;;27.20;77.10;;;;;;5034213;28;20108;-78
2021/06/01 07:59:39;;;;;;;4.85;2.70;;;27.40;76.60;;;;;;5020409;28;20037;-80
2021/06/01 08:02:05;;;;;;;4.63;2.22;;;27.70;76.20;;;;;;5026678;28;20038;-81
2021/06/01 08:04:30;;;;;;;6.45;2.33;;;27.80;76.20;;;;;;5050005;28;20028;-79
2021/06/01 08:07:01;;;;;;;3.60;2.33;;;27.70;76.90;;;;;;5049153;28;20021;-80
2021/06/01 08:09:27;;;;;;;11.80;2.60;;;27.50;77.90;;;;;;5012378;28;20032;-78
2021/06/01 08:11:53;;;;;;;6.10;2.38;;;27.60;78.70;;;;;;5016395;28;20030;-79
2021/06/01 08:14:18;;;;;;;2.78;2.50;;;27.60;78.00;;;;;;5033902;28;20040;-81
2021/06/01 08:16:45;;;;;;;17.05;2.85;;;28.00;78.30;;;;;;5033839;28;20444;-81
2021/06/01 08:19:15;;;;;;;3.15;2.20;;;28.30;78.50;;;;;;5033583;28;20068;-79
2021/06/01 08:24:13;;;;;;;2.60;2.28;;;28.30;78.80;;;;;;5031573;28;20461;-78
2021/06/01 08:26:39;;;;;;;5.63;2.35;;;28.10;79.00;;;;;;5033330;28;20102;-78
2021/06/01 08:29:06;;;;;;;5.50;2.38;;;28.10;80.20;;;;;;5033311;28;20063;-82
2021/06/01 08:31:32;;;;;;;4.28;2.47;;;28.10;80.20;;;;;;5033218;28;20021;-79
2021/06/01 08:33:57;;;;;;;10.43;2.40;;;28.20;80.30;;;;;;5020816;28;20064;-79
2021/06/01 08:36:25;;;;;;;6.28;2.10;;;28.30;79.70;;;;;;5029496;28;20095;-80
2021/06/01 08:38:51;;;;;;;3.08;1.95;;;28.40;78.10;;;;;;5033253;28;20021;-80
2021/06/01 08:41:17;;;;;;;3.97;2.50;;;28.30;78.20;;;;;;5033032;28;20056;-77
2021/06/01 08:43:43;;;;;;;3.78;2.53;;;28.40;78.90;;;;;;5032623;28;20088;-82
2021/06/01 08:46:10;;;;;;;3.22;2.33;;;28.50;78.50;;;;;;5031014;28;20017;-82
2021/06/01 08:48:37;;;;;;;8.98;3.17;;;28.70;78.00;;;;;;5032009;28;20529;-82
2021/06/01 08:51:05;;;;;;;4.05;2.67;;;28.80;77.70;;;;;;5031963;28;20025;-78
2021/06/01 08:53:35;;;;;;;10.48;3.38;;;28.40;78.10;;;;;;5032742;28;20017;-80
2021/06/01 08:56:01;;;;;;;7.07;2.58;;;28.20;79.50;;;;;;5032232;28;20485;-79
2021/06/01 08:58:27;;;;;;;7.63;2.70;;;28.30;79.80;;;;;;5032820;28;20501;-83
2021/06/01 09:00:53;;;;;;;5.03;2.85;;;28.20;79.60;;;;;;5032326;28;20049;-81
2021/06/01 09:03:23;;;;;;;4.20;2.78;;;28.10;79.60;;;;;;5032899;28;20045;-82
2021/06/01 09:09:00;;;;;;;5.45;2.70;;;28.00;79.80;;;;;;5033017;28;20048;-81
2021/06/01 09:12:29;;;;;;;7.15;2.80;;;27.70;81.00;;;;;;5032780;28;20080;-80
2021/06/01 09:22:43;;;;;;;4.07;2.45;;;27.60;78.60;;;;;;4989702;28;20497;-79
2021/06/01 09:25:41;;;;;;;11.10;2.88;;;27.50;78.50;;;;;;5031835;28;20021;-80
2021/06/01 09:28:11;;;;;;;2.92;2.58;;;27.60;78.40;;;;;;5031569;28;20083;-81
2021/06/01 09:30:54;;;;;;;4.97;2.60;;;27.50;79.10;;;;;;5032175;28;20400;-79
2021/06/01 09:33:19;;;;;;;3.78;2.47;;;27.60;78.50;;;;;;5031353;28;20025;-81
2021/06/01 09:35:57;;;;;;;5.68;2.28;;;27.80;79.30;;;;;;5031866;28;20045;-80
2021/06/01 09:38:43;;;;;;;4.25;2.78;;;27.90;80.60;;;;;;5024862;28;20026;-84
2021/06/01 09:41:15;;;;;;;3.88;2.58;;;27.90;81.10;;;;;;5031917;28;20029;-83
2021/06/01 09:44:05;;;;;;;2.40;2.10;;;27.90;81.10;;;;;;5031633;28;20014;-80
2021/06/01 09:46:46;;;;;;;3.60;2.55;;;27.70;79.10;;;;;;5031474;28;20414;-81
2021/06/01 09:49:15;;;;;;;7.90;2.80;;;27.40;81.60;;;;;;5031549;28;20041;-79
2021/06/01 09:52:03;;;;;;;5.05;2.78;;;27.40;82.50;;;;;;5031579;28;20029;-80
2021/06/01 09:54:59;;;;;;;2.80;2.50;;;27.10;83.60;;;;;;5013266;28;20381;-80
2021/06/01 09:57:25;;;;;;;3.33;2.60;;;26.80;85.20;;;;;;5029166;28;20129;-84
2021/06/01 10:00:13;;;;;;;6.32;4.05;;;26.80;86.60;;;;;;5031607;28;20032;-79
2021/06/01 10:02:40;;;;;;;4.00;2.60;;;26.70;88.30;;;;;;5031473;28;20381;-80
2021/06/01 10:05:14;;;;;;;8.02;3.20;;;26.70;87.60;;;;;;5031595;28;20075;-83
2021/06/01 10:07:41;;;;;;;5.55;2.90;;;26.40;87.90;;;;;;5031349;28;20025;-83
2021/06/01 10:10:24;;;;;;;3.88;3.10;;;26.10;88.50;;;;;;5031600;28;20112;-81
2021/06/01 10:12:58;;;;;;;7.22;3.15;;;25.80;89.80;;;;;;5031469;28;20088;-80
2021/06/01 10:15:27;;;;;;;4.15;3.00;;;25.80;89.90;;;;;;5031689;28;20067;-82
2021/06/01 10:17:52;;;;;;;4.80;2.67;;;25.90;90.10;;;;;;5031216;28;20018;-79
2021/06/01 10:20:21;;;;;;;6.00;2.95;;;26.10;89.50;;;;;;5031471;28;20034;-80
2021/06/01 10:22:47;;;;;;;4.43;2.80;;;26.10;89.60;;;;;;5031335;28;20030;-80
2021/06/01 10:25:16;;;;;;;5.90;3.10;;;26.10;89.30;;;;;;5031101;28;20501;-79
2021/06/01 10:27:45;;;;;;;5.38;2.95;;;26.20;89.70;;;;;;5031983;28;20100;-81
2021/06/01 10:30:13;;;;;;;10.57;3.00;;;26.10;88.30;;;;;;5030106;28;20033;-80
2021/06/01 10:32:42;;;;;;;5.68;3.50;;;25.80;88.80;;;;;;5031148;28;20101;-79
2021/06/01 10:35:11;;;;;;;4.15;2.85;;;25.60;90.10;;;;;;5031438;28;20037;-79
2021/06/01 10:52:08;;;;;;;3.70;2.88;;;25.10;90.60;;;;;;5031242;28;20025;-79
2021/06/01 10:54:47;;;;;;;5.10;3.03;;;25.10;90.80;;;;;;5011157;28;20018;-79
2021/06/01 10:57:15;;;;;;;6.30;3.72;;;25.10;91.30;;;;;;5031245;28;20024;-79
2021/06/01 11:02:30;;;;;;;5.00;3.20;;;24.70;92.00;;;;;;5031158;28;20096;-78
2021/06/01 11:05:02;;;;;;;3.53;3.13;;;24.70;92.30;;;;;;5030999;28;20018;-82
2021/06/01 11:07:48;;;;;;;9.55;3.13;;;24.60;92.50;;;;;;5030859;28;20047;-79
2021/06/01 11:10:40;;;;;;;6.15;3.60;;;24.50;93.20;;;;;;5034605;28;20017;-80
2021/06/01 11:13:08;;;;;;;7.88;3.58;;;24.70;93.70;;;;;;5034772;28;20449;-80
2021/06/01 11:15:36;;;;;;;6.43;3.60;;;24.50;94.00;;;;;;5034845;28;20029;-80
2021/06/01 11:18:37;;;;;;;4.10;3.30;;;24.40;93.40;;;;;;5017059;28;20359;-80
2021/06/01 11:35:14;;;;;;;6.63;3.60;;;24.70;95.40;;;;;;5034015;28;20495;-79
2021/06/01 11:40:38;;;;;;;8.07;3.28;;;24.70;95.20;;;;;;5000022;28;20056;-79
2021/06/01 11:43:10;;;;;;;5.72;3.65;;;24.50;94.70;;;;;;5033791;28;20033;-82
2021/06/01 11:45:46;;;;;;;11.88;3.22;;;24.40;94.90;;;;;;5034743;28;20018;-80
2021/06/01 11:48:26;;;;;;;8.23;3.92;;;24.30;95.10;;;;;;5035024;28;20606;-78
2021/06/01 11:51:13;;;;;;;4.00;3.22;;;24.10;95.40;;;;;;5034183;28;20050;-81
2021/06/01 11:53:54;;;;;;;5.13;3.10;;;23.80;94.60;;;;;;5040120;28;20021;-79
2021/06/01 11:56:46;;;;;;;16.98;3.10;;;23.50;95.10;;;;;;5046054;28;20033;-80
2021/06/01 12:13:54;;;;;;;5.57;3.35;;;23.60;95.10;;;;;;5033050;28;20052;-80
2021/06/01 12:18:51;;;;;;;7.10;3.10;;;23.50;94.70;;;;;;5030572;28;20421;-78
2021/06/01 12:21:23;;;;;;;7.50;3.00;;;23.40;95.30;;;;;;5031514;28;20516;-78
2021/06/01 12:24:14;;;;;;;5.05;2.90;;;23.50;95.30;;;;;;5031844;28;20051;-81
2021/06/01 12:26:56;;;;;;;7.78;2.78;;;23.50;95.30;;;;;;5032468;28;20038;-83
2021/06/01 12:32:09;;;;;;;6.45;2.83;;;23.40;95.30;;;;;;5025988;28;20524;-82
2021/06/01 12:46:29;;;;;;;9.93;3.13;;;23.40;96.00;;;;;;5031432;28;20036;-79
2021/06/01 13:39:44;;;;;;;12.00;5.50;;;22.80;93.60;;;;;;4996145;28;20107;-78
2021/06/01 13:55:41;;;;;;;10.32;3.55;;;23.00;93.90;;;;;;5030811;28;20021;-80
2021/06/01 14:00:41;;;;;;;12.15;3.78;;;22.90;94.00;;;;;;5030722;28;20026;-78
2021/06/01 15:47:47;;;;;;;4.40;2.80;;;21.90;94.60;;;;;;5023894;28;20079;-80
2021/06/01 16:43:45;;;;;;;5.22;2.78;;;21.60;90.90;;;;;;5031251;28;20156;-79
2021/06/01 17:03:13;;;;;;;6.60;2.65;;;21.50;93.60;;;;;;5028603;28;20095;-79
2021/06/01 17:13:53;;;;;;;5.22;3.00;;;21.40;93.10;;;;;;5028989;28;20074;-80
2021/06/01 17:16:39;;;;;;;5.32;2.95;;;21.30;92.50;;;;;;5030613;28;20060;-80
2021/06/01 17:34:55;;;;;;;4.18;2.95;;;21.10;92.70;;;;;;5031335;28;20045;-81
2021/06/01 17:37:22;;;;;;;8.82;3.08;;;21.00;93.00;;;;;;5030256;28;20099;-80
2021/06/01 17:39:48;;;;;;;3.75;2.92;;;21.00;93.60;;;;;;5030857;28;20029;-79
2021/06/01 17:42:19;;;;;;;4.43;2.80;;;21.00;93.50;;;;;;5030115;28;20037;-79
2021/06/01 17:44:47;;;;;;;3.58;2.67;;;20.90;93.60;;;;;;5012836;28;20423;-78
2021/06/01 17:47:18;;;;;;;6.20;3.10;;;20.90;93.60;;;;;;5030289;28;20029;-79
2021/06/01 17:49:49;;;;;;;7.67;3.27;;;20.90;93.60;;;;;;5012269;28;20092;-79
2021/06/01 17:52:23;;;;;;;5.03;3.10;;;20.80;94.00;;;;;;5029986;28;20280;-78
2021/06/01 17:54:54;;;;;;;3.53;2.85;;;20.80;94.10;;;;;;5030370;28;20776;-80
2021/06/01 17:57:24;;;;;;;7.55;3.30;;;20.70;94.30;;;;;;5029296;28;20402;-79
2021/06/01 17:59:50;;;;;;;4.78;3.63;;;20.70;94.70;;;;;;5030529;28;20075;-79
2021/06/01 18:02:17;;;;;;;5.75;3.20;;;20.70;94.80;;;;;;5030255;28;20026;-77
2021/06/01 18:04:46;;;;;;;11.45;3.72;;;20.60;94.90;;;;;;5030227;28;20040;-77
2021/06/01 18:07:15;;;;;;;6.47;3.70;;;20.60;95.40;;;;;;5029398;28;20051;-80
2021/06/01 18:51:36;;;;;;;6.38;3.72;;;20.00;99.20;;;;;;5030293;28;20013;-77
2021/06/01 19:24:27;;;;;;;6.88;3.42;;;19.60;98.70;;;;;;4976982;28;20507;-80
2021/06/01 19:29:54;;;;;;;5.03;3.65;;;19.50;98.40;;;;;;5029282;28;20532;-80
2021/06/01 19:52:10;;;;;;;13.13;4.57;;;18.90;98.30;;;;;;5030983;28;20044;-79
2021/06/01 19:54:37;;;;;;;8.82;4.47;;;18.80;98.50;;;;;;5028794;28;20025;-79
2021/06/01 19:57:03;;;;;;;9.05;4.57;;;18.80;98.60;;;;;;5027815;28;20560;-79
2021/06/01 19:59:29;;;;;;;14.95;5.50;;;18.70;98.50;;;;;;5028822;28;20159;-78
2021/06/01 20:01:55;;;;;;;6.20;4.45;;;18.70;98.70;;;;;;5025835;28;20167;-80
2021/06/01 20:04:21;;;;;;;13.07;4.75;;;18.70;98.80;;;;;;5025529;28;20030;-79
2021/06/01 20:06:49;;;;;;;9.85;4.72;;;18.60;98.90;;;;;;5030911;28;20083;-77
2021/06/01 20:09:18;;;;;;;9.65;4.43;;;18.60;99.20;;;;;;5030276;28;20049;-79
2021/06/01 20:11:45;;;;;;;9.32;4.38;;;18.60;99.40;;;;;;5029844;28;20099;-79
2021/06/01 20:14:11;;;;;;;13.18;4.60;;;18.60;99.40;;;;;;5028816;28;20060;-77
2021/06/01 20:16:42;;;;;;;7.82;4.38;;;18.50;99.40;;;;;;5026457;28;20091;-78
2021/06/01 20:19:14;;;;;;;8.13;5.10;;;18.40;99.50;;;;;;5031257;28;20509;-79
2021/06/01 20:21:40;;;;;;;8.48;5.22;;;18.30;99.80;;;;;;5011396;28;20040;-78
2021/06/01 20:24:08;;;;;;;9.68;5.13;;;18.40;99.80;;;;;;5031580;28;20102;-77
2021/06/01 20:26:35;;;;;;;14.35;4.50;;;18.30;99.90;;;;;;5026817;28;20024;-77
2021/06/01 20:29:07;;;;;;;6.93;5.10;;;18.30;99.90;;;;;;5031581;28;20022;-78
2021/06/01 20:31:38;;;;;;;8.10;4.97;;;18.20;99.90;;;;;;5023397;28;20030;-79